Terminal Aerodrome Forecast
Issued by NWS Jackson, MS

Home | Current Version | Previous Version | Text Only | Print | Product List | Glossary On
Versions: 1 2 3 4 5 6 7 8 9 10 11 12 13 14 15
000
FTUS44 KJAN 231748
TAFHBG
TAF
KHBG 231748Z 2318/2418 15004KT P6SM VCTS BKN035CB
      TEMPO 2318/2322 3SM TSRA BR
     FM240100 VRB03KT P6SM SCT100
     FM241000 00000KT 4SM BR FEW030
     FM241500 15004KT P6SM FEW035=

USA.gov is the U.S. government's official web portal to all federal, state and local government web resources and services.